Disney Magic — C6PT7 — position and weather

sailwx.info

Track history (hours):
 
Tides and Currents Weather Stations Pressure Air Temp Water Temp Dewpoint Dewpoint Depression Visibility Wind Speed Wind Dir Waves Ship Positions

Disney Magic

Last reported at 2014-Jul-26 06:31 UTC. Time now 2014-Jul-26 13:16 UTC.
Position N 41°21' E 002°11'.

Type: Passenger vessel. MMSI: 308516000.

Date/timePositionNaut miles runAvg speedWind from/ knotsBaromVisibWave heightAir tempDewpointWater temp
2014-Jul-26 06:31N 41°21' E 002°11'0 0.0
2014-Jul-26 04:25N 41°21' E 002°11'0 0.0
2014-Jul-26 03:25N 41°21' E 002°11'2 2.2
2014-Jul-26 02:33N 41°20' E 002°10'1413.7
2014-Jul-26 01:32N 41°11' E 002°24'1818.6
2014-Jul-26 00:33N 41°01' E 002°45'1919.0
2014-Jul-25 23:33N 40°52' E 003°07'1918.9
2014-Jul-25 22:33N 40°43' E 003°29'2119.2
2014-Jul-25 21:28N 40°34' E 003°53'1819.4
2014-Jul-25 20:33N 40°24' E 004°13'1919.4
2014-Jul-25 19:33N 40°15' E 004°35'2019.6
2014-Jul-25 18:33N 40°05' E 004°58'7418.3
2014-Jul-25 14:29N 39°31' E 006°24'1819.6
2014-Jul-25 13:33N 39°24' E 006°46'6019.5
2014-Jul-25 10:29N 38°49' E 007°49'1818.7
2014-Jul-25 09:29N 38°41' E 008°10'1718.4
2014-Jul-25 08:33N 38°33' E 008°29'1918.8
2014-Jul-25 07:32N 38°25' E 008°51'1919.6
2014-Jul-25 06:33N 38°15' E 009°13'2019.6
2014-Jul-25 05:33N 38°06' E 009°35'1919.4
2014-Jul-25 04:33N 37°58' E 009°57'2019.5
2014-Jul-25 03:33N 37°49' E 010°20'2019.4
2014-Jul-25 02:32N 37°40' E 010°41'2020.5
2014-Jul-25 01:33N 37°30' E 011°04'2120.9
2014-Jul-25 00:32N 37°20' E 011°27'3 5.7
2014-Jul-25 00:00N 37°18' E 011°30'5923.0 120 / 61011.010.8 23.0 25.0
2014-Jul-24 21:25N 36°52' E 012°36'1619.0
2014-Jul-24 20:33N 36°44' E 012°55'1919.3
2014-Jul-24 19:33N 36°36' E 013°16'2019.7
2014-Jul-24 18:33N 36°27' E 013°38'2019.8
2014-Jul-24 17:33N 36°17' E 013°60'2019.7
2014-Jul-24 16:33N 36°08' E 014°21'1616.4
2014-Jul-24 15:33N 35°55' E 014°33'2 2.3
2014-Jul-24 14:33N 35°53' E 014°31'0 0.0
2014-Jul-24 13:05N 35°53' E 014°31'0 0.0
2014-Jul-24 12:26N 35°53' E 014°31'0 0.0
2014-Jul-24 11:32N 35°53' E 014°31'0 0.0
2014-Jul-24 10:33N 35°53' E 014°31'8 1.1
2014-Jul-24 03:30N 35°57' E 014°39'44515.4
2014-Jul-22 22:33N 36°09' E 023°49'1514.8
2014-Jul-22 21:33N 36°12' E 024°07'1414.4
2014-Jul-22 20:33N 36°19' E 024°23'7 7.1
2014-Jul-22 19:33N 36°18' E 024°32'8 8.2
2014-Jul-22 18:33N 36°16' E 024°42'1514.9
2014-Jul-22 17:33N 36°19' E 025°00'1514.9
2014-Jul-22 16:33N 36°23' E 025°18'6 5.6
2014-Jul-22 15:29N 36°25' E 025°25'0 0.0
2014-Jul-22 14:17N 36°25' E 025°25'0 0.0
2014-Jul-22 12:29N 36°25' E 025°25'0 0.0
2014-Jul-22 11:29N 36°25' E 025°25'0 0.0
2014-Jul-22 08:29N 36°25' E 025°25'0 0.0
2014-Jul-22 07:29N 36°25' E 025°25'0 0.0
2014-Jul-22 06:17N 36°25' E 025°25'0 0.0
2014-Jul-22 05:20N 36°25' E 025°25'0 0.0
2014-Jul-22 04:23N 36°25' E 025°25'0 0.1
2014-Jul-22 03:33N 36°25' E 025°25'1010.4
2014-Jul-22 02:33N 36°35' E 025°25'1918.7
2014-Jul-22 01:33N 36°48' E 025°42'1717.2
2014-Jul-22 00:34N 37°05' E 025°45'2019.7
2014-Jul-21 23:33N 37°25' E 025°45'1413.6
2014-Jul-21 22:32N 37°38' E 025°39'8 7.9
2014-Jul-21 21:33N 37°45' E 025°44'1313.5
2014-Jul-21 20:33N 37°40' E 025°28'415.7
2014-Jul-21 20:18N 37°37' E 025°25'1215.5
2014-Jul-21 19:33N 37°29' E 025°14'1615.5
2014-Jul-21 18:31N 37°16' E 025°03'5 5.1
2014-Jul-21 17:33N 37°19' E 025°08'9 8.8
2014-Jul-21 16:33N 37°27' E 025°11'7 6.7
2014-Jul-21 15:33N 37°28' E 025°19'0 0.0
2014-Jul-21 14:33N 37°28' E 025°19'0 0.0
2014-Jul-21 13:33N 37°28' E 025°19'0 0.0
2014-Jul-21 12:33N 37°28' E 025°19'0 0.0
2014-Jul-21 11:33N 37°28' E 025°19'0 0.0
2014-Jul-21 10:33N 37°28' E 025°19'0 0.0
2014-Jul-21 09:33N 37°28' E 025°19'0 0.0
2014-Jul-21 08:33N 37°28' E 025°19'0 0.0
2014-Jul-21 07:33N 37°28' E 025°19'0 0.0
2014-Jul-21 06:33N 37°28' E 025°19'0 0.0
2014-Jul-21 05:33N 37°28' E 025°19'0 0.0
2014-Jul-21 04:33N 37°28' E 025°19'0 0.0
2014-Jul-21 03:33N 37°28' E 025°19'3 3.0
2014-Jul-21 02:33N 37°31' E 025°18'1313.5
2014-Jul-21 01:33N 37°30' E 025°35'1514.6
2014-Jul-21 00:32N 37°16' E 025°41'1414.6
2014-Jul-20 23:33N 37°02' E 025°45'1414.2
2014-Jul-20 22:33N 36°48' E 025°41'1514.6
2014-Jul-20 21:33N 36°34' E 025°37'1515.4
2014-Jul-20 20:32N 36°18' E 025°34'1515.0
2014-Jul-20 19:33N 36°04' E 025°31'1514.7
2014-Jul-20 18:32N 35°49' E 025°25'1615.4
2014-Jul-20 17:29N 35°34' E 025°20'1414.0
2014-Jul-20 16:29N 35°22' E 025°11'10 0.7
2014-Jul-20 02:21N 35°25' E 025°22'1619.0
2014-Jul-20 01:29N 35°30' E 025°42'1918.7
2014-Jul-20 00:28N 35°35' E 026°04'6114.6
2014-Jul-19 20:18N 36°09' E 027°07'6 8.0
2014-Jul-19 19:33N 36°12' E 027°13'7 0.4
2014-Jul-19 00:31N 36°15' E 027°22'13 8.4
2014-Jul-18 23:00N 36°12' E 027°06'2617.8 320 / 241008.010.8 22.0 25.0
2014-Jul-18 21:31N 36°34' E 026°48'1616.6
2014-Jul-18 20:33N 36°49' E 026°43'1716.2
2014-Jul-18 19:29N 37°06' E 026°38'1616.4
2014-Jul-18 18:30N 37°22' E 026°39'2016.6
2014-Jul-18 17:18N 37°41' E 026°32'1114.2
2014-Jul-18 16:33N 37°50' E 026°39'41 2.3
2014-Jul-17 23:04N 37°46' E 025°48'14185.1
2014-Jul-17 23:00N 37°36' E 025°36'512.5 320 / 191010.010.8 22.0 25.0
2014-Jul-17 22:33N 37°41' E 025°38'1919.4
2014-Jul-17 21:33N 37°32' E 025°17'2218.2
2014-Jul-17 20:22N 37°33' E 024°50'1619.2
2014-Jul-17 19:33N 37°32' E 024°30'2618.7
2014-Jul-17 18:08N 37°32' E 023°57'1219.6
2014-Jul-17 17:32N 37°36' E 023°43'1716.9
2014-Jul-17 16:33N 37°52' E 023°37'4 4.2
2014-Jul-17 15:33N 37°56' E 023°38'0 0.0
2014-Jul-17 14:33N 37°56' E 023°38'0 0.0
2014-Jul-17 13:33N 37°56' E 023°38'0 0.0
2014-Jul-17 12:33N 37°56' E 023°38'0 0.0
2014-Jul-17 11:33N 37°56' E 023°38'0 0.0
2014-Jul-17 10:33N 37°56' E 023°38'0 0.0
2014-Jul-17 09:33N 37°56' E 023°38'0 0.0
2014-Jul-17 08:33N 37°56' E 023°38'0 0.0
2014-Jul-17 07:33N 37°56' E 023°38'0 0.0
2014-Jul-17 06:33N 37°56' E 023°38'0 0.0
2014-Jul-17 05:33N 37°56' E 023°38'0 0.0
2014-Jul-17 04:33N 37°56' E 023°38'0 0.1
2014-Jul-17 03:34N 37°56' E 023°38'3 3.2
2014-Jul-17 02:33N 37°53' E 023°38'1010.0
2014-Jul-17 01:33N 37°44' E 023°44'  
Track history (hours):
 
Tides and Currents Weather Stations Pressure Air Temp Water Temp Dewpoint Dewpoint Depression Visibility Wind Speed Wind Dir Waves Ship Positions

Disney Magic

Last reported at 2014-Jul-26 06:31 UTC. Time now 2014-Jul-26 13:16 UTC.
Position N 41°21' E 002°11'.

Type: Passenger vessel. MMSI: 308516000.

Date/timePositionNaut miles runAvg speedWind from/ knotsBaromVisibWave heightAir tempDewpointWater temp
2014-Jul-26 06:31N 41°21' E 002°11'0 0.0
2014-Jul-26 04:25N 41°21' E 002°11'0 0.0
2014-Jul-26 03:25N 41°21' E 002°11'2 2.2
2014-Jul-26 02:33N 41°20' E 002°10'1413.7
2014-Jul-26 01:32N 41°11' E 002°24'1818.6
2014-Jul-26 00:33N 41°01' E 002°45'1919.0
2014-Jul-25 23:33N 40°52' E 003°07'1918.9
2014-Jul-25 22:33N 40°43' E 003°29'2119.2
2014-Jul-25 21:28N 40°34' E 003°53'1819.4
2014-Jul-25 20:33N 40°24' E 004°13'1919.4
2014-Jul-25 19:33N 40°15' E 004°35'2019.6
2014-Jul-25 18:33N 40°05' E 004°58'7418.3
2014-Jul-25 14:29N 39°31' E 006°24'1819.6
2014-Jul-25 13:33N 39°24' E 006°46'6019.5
2014-Jul-25 10:29N 38°49' E 007°49'1818.7
2014-Jul-25 09:29N 38°41' E 008°10'1718.4
2014-Jul-25 08:33N 38°33' E 008°29'1918.8
2014-Jul-25 07:32N 38°25' E 008°51'1919.6
2014-Jul-25 06:33N 38°15' E 009°13'2019.6
2014-Jul-25 05:33N 38°06' E 009°35'1919.4
2014-Jul-25 04:33N 37°58' E 009°57'2019.5
2014-Jul-25 03:33N 37°49' E 010°20'2019.4
2014-Jul-25 02:32N 37°40' E 010°41'2020.5
2014-Jul-25 01:33N 37°30' E 011°04'2120.9
2014-Jul-25 00:32N 37°20' E 011°27'3 5.7
2014-Jul-25 00:00N 37°18' E 011°30'5923.0 120 / 61011.010.8 23.0 25.0
2014-Jul-24 21:25N 36°52' E 012°36'1619.0
2014-Jul-24 20:33N 36°44' E 012°55'1919.3
2014-Jul-24 19:33N 36°36' E 013°16'2019.7
2014-Jul-24 18:33N 36°27' E 013°38'2019.8
2014-Jul-24 17:33N 36°17' E 013°60'2019.7
2014-Jul-24 16:33N 36°08' E 014°21'1616.4
2014-Jul-24 15:33N 35°55' E 014°33'2 2.3
2014-Jul-24 14:33N 35°53' E 014°31'0 0.0
2014-Jul-24 13:05N 35°53' E 014°31'0 0.0
2014-Jul-24 12:26N 35°53' E 014°31'0 0.0
2014-Jul-24 11:32N 35°53' E 014°31'0 0.0
2014-Jul-24 10:33N 35°53' E 014°31'8 1.1
2014-Jul-24 03:30N 35°57' E 014°39'44515.4
2014-Jul-22 22:33N 36°09' E 023°49'1514.8
2014-Jul-22 21:33N 36°12' E 024°07'1414.4
2014-Jul-22 20:33N 36°19' E 024°23'7 7.1
2014-Jul-22 19:33N 36°18' E 024°32'8 8.2
2014-Jul-22 18:33N 36°16' E 024°42'1514.9
2014-Jul-22 17:33N 36°19' E 025°00'1514.9
2014-Jul-22 16:33N 36°23' E 025°18'6 5.6
2014-Jul-22 15:29N 36°25' E 025°25'0 0.0
2014-Jul-22 14:17N 36°25' E 025°25'0 0.0
2014-Jul-22 12:29N 36°25' E 025°25'0 0.0
2014-Jul-22 11:29N 36°25' E 025°25'0 0.0
2014-Jul-22 08:29N 36°25' E 025°25'0 0.0
2014-Jul-22 07:29N 36°25' E 025°25'0 0.0
2014-Jul-22 06:17N 36°25' E 025°25'0 0.0
2014-Jul-22 05:20N 36°25' E 025°25'0 0.0
2014-Jul-22 04:23N 36°25' E 025°25'0 0.1
2014-Jul-22 03:33N 36°25' E 025°25'1010.4
2014-Jul-22 02:33N 36°35' E 025°25'1918.7
2014-Jul-22 01:33N 36°48' E 025°42'1717.2
2014-Jul-22 00:34N 37°05' E 025°45'2019.7
2014-Jul-21 23:33N 37°25' E 025°45'1413.6
2014-Jul-21 22:32N 37°38' E 025°39'8 7.9
2014-Jul-21 21:33N 37°45' E 025°44'1313.5
2014-Jul-21 20:33N 37°40' E 025°28'415.7
2014-Jul-21 20:18N 37°37' E 025°25'1215.5
2014-Jul-21 19:33N 37°29' E 025°14'1615.5
2014-Jul-21 18:31N 37°16' E 025°03'5 5.1
2014-Jul-21 17:33N 37°19' E 025°08'9 8.8
2014-Jul-21 16:33N 37°27' E 025°11'7 6.7
2014-Jul-21 15:33N 37°28' E 025°19'0 0.0
2014-Jul-21 14:33N 37°28' E 025°19'0 0.0
2014-Jul-21 13:33N 37°28' E 025°19'0 0.0
2014-Jul-21 12:33N 37°28' E 025°19'0 0.0
2014-Jul-21 11:33N 37°28' E 025°19'0 0.0
2014-Jul-21 10:33N 37°28' E 025°19'0 0.0
2014-Jul-21 09:33N 37°28' E 025°19'0 0.0
2014-Jul-21 08:33N 37°28' E 025°19'0 0.0
2014-Jul-21 07:33N 37°28' E 025°19'0 0.0
2014-Jul-21 06:33N 37°28' E 025°19'0 0.0
2014-Jul-21 05:33N 37°28' E 025°19'0 0.0
2014-Jul-21 04:33N 37°28' E 025°19'0 0.0
2014-Jul-21 03:33N 37°28' E 025°19'3 3.0
2014-Jul-21 02:33N 37°31' E 025°18'1313.5
2014-Jul-21 01:33N 37°30' E 025°35'1514.6
2014-Jul-21 00:32N 37°16' E 025°41'1414.6
2014-Jul-20 23:33N 37°02' E 025°45'1414.2
2014-Jul-20 22:33N 36°48' E 025°41'1514.6
2014-Jul-20 21:33N 36°34' E 025°37'1515.4
2014-Jul-20 20:32N 36°18' E 025°34'1515.0
2014-Jul-20 19:33N 36°04' E 025°31'1514.7
2014-Jul-20 18:32N 35°49' E 025°25'1615.4
2014-Jul-20 17:29N 35°34' E 025°20'1414.0
2014-Jul-20 16:29N 35°22' E 025°11'10 0.7
2014-Jul-20 02:21N 35°25' E 025°22'1619.0
2014-Jul-20 01:29N 35°30' E 025°42'1918.7
2014-Jul-20 00:28N 35°35' E 026°04'6114.6
2014-Jul-19 20:18N 36°09' E 027°07'6 8.0
2014-Jul-19 19:33N 36°12' E 027°13'7 0.4
2014-Jul-19 00:31N 36°15' E 027°22'13 8.4
2014-Jul-18 23:00N 36°12' E 027°06'2617.8 320 / 241008.010.8 22.0 25.0
2014-Jul-18 21:31N 36°34' E 026°48'1616.6
2014-Jul-18 20:33N 36°49' E 026°43'1716.2
2014-Jul-18 19:29N 37°06' E 026°38'1616.4
2014-Jul-18 18:30N 37°22' E 026°39'2016.6
2014-Jul-18 17:18N 37°41' E 026°32'1114.2
2014-Jul-18 16:33N 37°50' E 026°39'41 2.3
2014-Jul-17 23:04N 37°46' E 025°48'14185.1
2014-Jul-17 23:00N 37°36' E 025°36'512.5 320 / 191010.010.8 22.0 25.0
2014-Jul-17 22:33N 37°41' E 025°38'1919.4
2014-Jul-17 21:33N 37°32' E 025°17'2218.2
2014-Jul-17 20:22N 37°33' E 024°50'1619.2
2014-Jul-17 19:33N 37°32' E 024°30'2618.7
2014-Jul-17 18:08N 37°32' E 023°57'1219.6
2014-Jul-17 17:32N 37°36' E 023°43'1716.9
2014-Jul-17 16:33N 37°52' E 023°37'4 4.2
2014-Jul-17 15:33N 37°56' E 023°38'0 0.0
2014-Jul-17 14:33N 37°56' E 023°38'0 0.0
2014-Jul-17 13:33N 37°56' E 023°38'0 0.0
2014-Jul-17 12:33N 37°56' E 023°38'0 0.0
2014-Jul-17 11:33N 37°56' E 023°38'0 0.0
2014-Jul-17 10:33N 37°56' E 023°38'0 0.0
2014-Jul-17 09:33N 37°56' E 023°38'0 0.0
2014-Jul-17 08:33N 37°56' E 023°38'0 0.0
2014-Jul-17 07:33N 37°56' E 023°38'0 0.0
2014-Jul-17 06:33N 37°56' E 023°38'0 0.0
2014-Jul-17 05:33N 37°56' E 023°38'0 0.0
2014-Jul-17 04:33N 37°56' E 023°38'0 0.1
2014-Jul-17 03:34N 37°56' E 023°38'3 3.2
2014-Jul-17 02:33N 37°53' E 023°38'1010.0
2014-Jul-17 01:33N 37°44' E 023°44'  

Dump ship's entire track history